createdAt,value
2022-12-14T00:00:07.324Z,2.60
2022-12-14T00:01:11.449Z,2.60
2022-12-14T00:02:13.146Z,2.70
2022-12-14T00:03:17.119Z,2.60
2022-12-14T00:04:18.854Z,2.70
2022-12-14T00:05:20.469Z,2.60
2022-12-14T00:06:25.427Z,2.70
2022-12-14T00:07:29.603Z,2.90
2022-12-14T00:08:34.297Z,2.90
2022-12-14T00:09:38.451Z,2.70
2022-12-14T00:10:42.449Z,2.80
2022-12-14T00:11:45.361Z,2.70
2022-12-14T00:12:47.380Z,2.80
2022-12-14T00:14:00.571Z,2.80
2022-12-14T00:15:02.316Z,2.70
2022-12-14T00:16:16.329Z,2.70
2022-12-14T00:17:18.026Z,2.90
2022-12-14T00:18:22.597Z,2.90
2022-12-14T00:19:24.389Z,3.10
2022-12-14T00:20:27.721Z,2.80
2022-12-14T00:21:35.758Z,2.80
2022-12-14T00:22:37.425Z,2.80
2022-12-14T00:23:41.435Z,2.90
2022-12-14T00:24:43.224Z,2.80
2022-12-14T00:25:44.974Z,2.80
2022-12-14T00:26:50.871Z,2.80
2022-12-14T00:27:53.013Z,2.80
2022-12-14T00:28:55.822Z,2.70
2022-12-14T00:29:58.997Z,2.90
2022-12-14T00:31:01.107Z,3.00
2022-12-14T00:32:05.808Z,2.90
2022-12-14T00:33:07.688Z,3.20
2022-12-14T00:34:10.443Z,2.90
2022-12-14T00:35:16.097Z,2.90
2022-12-14T00:36:18.790Z,3.00
2022-12-14T00:37:20.630Z,2.60
2022-12-14T00:38:22.286Z,2.90
2022-12-14T00:39:26.811Z,3.10
2022-12-14T00:40:29.944Z,2.90
2022-12-14T00:41:31.580Z,3.10
2022-12-14T00:42:33.746Z,2.90
2022-12-14T00:43:35.777Z,2.90
2022-12-14T00:44:37.422Z,2.90
2022-12-14T00:45:39.112Z,2.90
2022-12-14T00:46:40.945Z,2.90
2022-12-14T00:47:43.111Z,2.90
2022-12-14T00:48:45.081Z,3.00
2022-12-14T00:49:46.762Z,2.90
2022-12-14T00:50:52.285Z,3.00
2022-12-14T00:51:55.026Z,3.00
2022-12-14T00:52:57.130Z,2.90
2022-12-14T00:53:59.189Z,2.80
2022-12-14T00:55:00.946Z,2.70
2022-12-14T00:56:07.637Z,2.80
2022-12-14T00:57:10.315Z,2.40
2022-12-14T00:58:13.640Z,2.90
2022-12-14T00:59:20.697Z,2.80
2022-12-14T01:00:25.067Z,2.80
2022-12-14T01:01:26.863Z,2.70
2022-12-14T01:02:28.744Z,2.80
2022-12-14T01:03:31.472Z,2.70
2022-12-14T01:04:33.518Z,2.80
2022-12-14T01:05:36.077Z,2.70
2022-12-14T01:06:38.082Z,2.90
2022-12-14T01:07:43.941Z,2.80
2022-12-14T01:08:50.807Z,2.80
2022-12-14T01:09:53.927Z,2.80
2022-12-14T01:10:58.290Z,2.80
2022-12-14T01:11:59.964Z,3.00
2022-12-14T01:13:01.985Z,2.90
2022-12-14T01:14:05.987Z,2.90
2022-12-14T01:15:08.207Z,2.90
2022-12-14T01:16:15.147Z,2.90
2022-12-14T01:17:18.086Z,2.90
2022-12-14T01:18:19.722Z,2.70
2022-12-14T01:19:21.478Z,2.90
2022-12-14T01:20:23.135Z,2.90
2022-12-14T01:21:25.295Z,2.70
2022-12-14T01:22:26.938Z,2.60
2022-12-14T01:23:29.200Z,2.70
2022-12-14T01:24:31.012Z,2.70
2022-12-14T01:25:32.799Z,2.60
2022-12-14T01:26:39.170Z,3.00
2022-12-14T01:27:40.875Z,3.00
2022-12-14T01:28:42.993Z,2.90
2022-12-14T01:29:44.749Z,2.70
2022-12-14T01:30:46.442Z,2.80
2022-12-14T01:31:48.749Z,2.80
2022-12-14T01:32:50.679Z,2.80
2022-12-14T01:33:52.556Z,2.80
2022-12-14T01:34:54.630Z,3.00
2022-12-14T01:35:56.619Z,2.80
2022-12-14T01:36:58.386Z,2.80
2022-12-14T01:38:00.015Z,2.80
2022-12-14T01:39:10.607Z,2.90
2022-12-14T01:40:12.820Z,2.90
2022-12-14T01:41:28.455Z,2.80
2022-12-14T01:42:30.211Z,2.60
2022-12-14T01:43:50.982Z,3.10
2022-12-14T01:44:55.504Z,2.90
2022-12-14T01:45:58.368Z,2.80
2022-12-14T01:47:07.375Z,2.90
2022-12-14T01:48:15.423Z,2.90
2022-12-14T01:49:26.762Z,2.90
2022-12-14T01:50:30.426Z,3.00
2022-12-14T01:51:34.048Z,3.00
2022-12-14T01:52:46.519Z,2.90
2022-12-14T01:53:48.883Z,3.10
2022-12-14T01:54:56.667Z,2.90
2022-12-14T01:55:58.341Z,2.90
2022-12-14T01:57:00.386Z,3.10
2022-12-14T01:58:16.064Z,2.90
2022-12-14T01:59:31.447Z,2.90
2022-12-14T02:00:33.377Z,3.10
2022-12-14T02:01:35.730Z,2.90
2022-12-14T02:02:41.009Z,2.50
2022-12-14T02:03:49.154Z,3.10
2022-12-14T02:04:57.713Z,2.70
2022-12-14T02:06:17.659Z,3.00
2022-12-14T02:07:19.704Z,3.00
2022-12-14T02:08:26.415Z,3.00
2022-12-14T02:09:31.217Z,3.00
2022-12-14T02:10:34.155Z,2.90
2022-12-14T02:11:50.051Z,2.60
2022-12-14T02:12:59.229Z,2.90
2022-12-14T02:14:01.075Z,2.90
2022-12-14T02:15:05.115Z,3.20
2022-12-14T02:16:07.439Z,2.90
2022-12-14T02:17:12.114Z,2.90
2022-12-14T02:18:21.336Z,3.10
2022-12-14T02:19:24.158Z,3.00
2022-12-14T02:20:34.235Z,3.00
2022-12-14T02:22:03.142Z,3.10
2022-12-14T02:23:25.566Z,3.00
2022-12-14T02:24:46.042Z,3.00
2022-12-14T02:26:28.434Z,3.00
2022-12-14T02:27:47.213Z,2.70
2022-12-14T02:29:23.570Z,2.80
2022-12-14T02:30:28.574Z,2.90
2022-12-14T02:31:51.816Z,2.90
2022-12-14T02:32:56.174Z,2.80
2022-12-14T02:34:19.994Z,2.80
2022-12-14T02:35:43.203Z,3.00
2022-12-14T02:37:02.849Z,2.70
2022-12-14T02:38:37.613Z,2.60
2022-12-14T02:40:09.165Z,2.90
2022-12-14T02:41:39.276Z,3.00
2022-12-14T02:42:46.843Z,2.90
2022-12-14T02:44:02.626Z,3.00
2022-12-14T02:45:36.758Z,2.70
2022-12-14T02:47:06.034Z,2.70
2022-12-14T02:48:23.116Z,2.70
2022-12-14T02:49:40.366Z,2.80
2022-12-14T02:51:02.912Z,2.40
2022-12-14T02:52:42.895Z,2.70
2022-12-14T02:54:04.334Z,3.00
2022-12-14T02:55:16.474Z,2.70
2022-12-14T02:56:28.106Z,2.90
2022-12-14T02:57:40.594Z,2.70
2022-12-14T02:58:51.440Z,2.90
2022-12-14T02:59:57.779Z,3.00
2022-12-14T03:01:00.166Z,2.70
2022-12-14T03:02:04.340Z,2.50
2022-12-14T03:03:07.621Z,2.80
2022-12-14T03:04:09.588Z,2.80
2022-12-14T03:05:11.638Z,2.70
2022-12-14T03:06:26.222Z,2.90
2022-12-14T03:07:38.240Z,2.80
2022-12-14T03:08:42.873Z,3.00
2022-12-14T03:09:44.733Z,3.00
2022-12-14T03:10:56.741Z,2.80
2022-12-14T03:12:19.623Z,3.00
2022-12-14T03:13:44.055Z,2.90
2022-12-14T03:14:51.355Z,3.00
2022-12-14T03:16:04.897Z,3.10
2022-12-14T03:17:20.466Z,3.10
2022-12-14T03:18:25.478Z,2.80
2022-12-14T03:19:37.154Z,2.90
2022-12-14T03:20:42.542Z,3.10
2022-12-14T03:21:48.778Z,3.00
2022-12-14T03:23:04.721Z,3.00
2022-12-14T03:24:18.056Z,3.00
2022-12-14T03:25:58.694Z,2.90
2022-12-14T03:27:09.850Z,2.90
2022-12-14T03:28:19.477Z,3.00
2022-12-14T03:29:27.396Z,3.20
2022-12-14T03:30:58.212Z,3.10
2022-12-14T03:32:02.660Z,3.00
2022-12-14T03:33:09.554Z,3.00
2022-12-14T03:34:14.555Z,2.90
2022-12-14T03:35:30.032Z,2.80
2022-12-14T03:36:42.101Z,2.90
2022-12-14T03:38:21.597Z,2.80
2022-12-14T03:39:33.606Z,3.00
2022-12-14T03:40:42.494Z,3.00
2022-12-14T03:42:05.871Z,2.70
2022-12-14T03:43:52.115Z,3.00
2022-12-14T03:45:00.051Z,2.70
2022-12-14T03:46:19.784Z,2.80
2022-12-14T03:47:42.865Z,2.60
2022-12-14T03:48:54.872Z,2.60
2022-12-14T03:50:09.757Z,2.60
2022-12-14T03:51:30.223Z,2.70
2022-12-14T03:53:23.655Z,2.70
2022-12-14T03:54:51.295Z,2.60
2022-12-14T03:56:19.799Z,2.70
2022-12-14T03:57:37.127Z,2.90
2022-12-14T03:59:11.225Z,2.70
2022-12-14T04:00:20.419Z,2.80
2022-12-14T04:01:53.343Z,2.70
2022-12-14T04:03:20.946Z,2.70
2022-12-14T04:04:47.099Z,2.80
2022-12-14T04:06:07.033Z,2.90
2022-12-14T04:07:22.653Z,3.00
2022-12-14T04:08:54.542Z,2.90
2022-12-14T04:10:04.957Z,3.00
2022-12-14T04:11:31.187Z,2.80
2022-12-14T04:12:56.733Z,2.80
2022-12-14T04:14:46.806Z,2.90
2022-12-14T04:16:09.403Z,2.60
2022-12-14T04:17:37.284Z,2.90
2022-12-14T04:18:59.697Z,3.00
2022-12-14T04:20:09.132Z,2.80
2022-12-14T04:21:36.045Z,2.80
2022-12-14T04:22:53.575Z,2.90
2022-12-14T04:24:20.290Z,2.80
2022-12-14T04:25:52.363Z,2.80
2022-12-14T04:27:06.267Z,3.00
2022-12-14T04:28:35.412Z,3.00
2022-12-14T04:29:56.656Z,2.70
2022-12-14T04:31:04.312Z,2.70
2022-12-14T04:32:26.958Z,2.90
2022-12-14T04:33:48.642Z,2.80
2022-12-14T04:34:57.975Z,2.80
2022-12-14T04:36:03.253Z,2.60
2022-12-14T04:37:10.729Z,2.90
2022-12-14T04:38:27.562Z,2.60
2022-12-14T04:39:58.111Z,2.80
2022-12-14T04:41:05.259Z,2.70
2022-12-14T04:42:09.576Z,2.70
2022-12-14T04:43:19.996Z,2.50
2022-12-14T04:44:31.933Z,2.70
2022-12-14T04:46:02.507Z,2.00
2022-12-14T04:47:08.449Z,2.60
2022-12-14T04:48:34.409Z,2.50
2022-12-14T04:50:18.163Z,2.60
2022-12-14T04:51:37.209Z,2.40
2022-12-14T04:52:47.154Z,2.70
2022-12-14T04:53:53.561Z,2.60
2022-12-14T04:55:07.110Z,2.50
2022-12-14T04:56:20.220Z,2.50
2022-12-14T04:57:32.031Z,2.50
2022-12-14T04:58:41.314Z,2.50
2022-12-14T04:59:43.882Z,2.40
2022-12-14T05:01:11.875Z,2.50
2022-12-14T05:02:19.706Z,2.50
2022-12-14T05:03:30.871Z,2.40
2022-12-14T05:04:55.438Z,2.60
2022-12-14T05:06:09.282Z,2.30
2022-12-14T05:07:39.457Z,2.40
2022-12-14T05:09:11.157Z,2.50
2022-12-14T05:10:39.933Z,2.50
2022-12-14T05:11:59.807Z,2.50
2022-12-14T05:13:08.923Z,2.50
2022-12-14T05:14:19.783Z,2.60
2022-12-14T05:15:28.963Z,2.60
2022-12-14T05:16:30.807Z,2.60
2022-12-14T05:17:36.640Z,2.80
2022-12-14T05:18:39.574Z,2.80
2022-12-14T05:19:51.154Z,2.80
2022-12-14T05:20:52.927Z,2.80
2022-12-14T05:21:54.988Z,2.60
2022-12-14T05:22:56.794Z,2.90
2022-12-14T05:24:01.646Z,2.80
2022-12-14T05:25:03.603Z,2.80
2022-12-14T05:26:06.917Z,2.90
2022-12-14T05:27:08.881Z,2.90
2022-12-14T05:28:11.378Z,2.90
2022-12-14T05:29:13.989Z,2.80
2022-12-14T05:30:17.050Z,3.10
2022-12-14T05:31:18.876Z,2.80
2022-12-14T05:32:20.707Z,3.00
2022-12-14T05:33:23.429Z,2.90
2022-12-14T05:34:25.068Z,2.90
2022-12-14T05:35:26.823Z,2.90
2022-12-14T05:36:28.897Z,3.10
2022-12-14T05:37:31.746Z,3.10
2022-12-14T05:38:33.410Z,3.00
2022-12-14T05:39:36.552Z,3.00
2022-12-14T05:40:38.391Z,3.10
2022-12-14T05:41:40.089Z,3.10
2022-12-14T05:42:45.403Z,3.00
2022-12-14T05:43:49.327Z,3.10
2022-12-14T05:44:51.081Z,3.00
2022-12-14T05:46:02.289Z,3.10
2022-12-14T05:47:04.191Z,3.10
2022-12-14T05:48:06.088Z,2.60
2022-12-14T05:49:08.143Z,3.00
2022-12-14T05:50:10.002Z,2.70
2022-12-14T05:51:13.581Z,3.00
2022-12-14T05:52:15.443Z,3.00
2022-12-14T05:53:17.390Z,3.20
2022-12-14T05:54:19.330Z,3.00
2022-12-14T05:55:21.491Z,3.10
2022-12-14T05:56:23.406Z,3.10
2022-12-14T05:57:25.131Z,3.20
2022-12-14T05:58:27.894Z,3.20
2022-12-14T05:59:30.956Z,3.10
2022-12-14T06:00:32.646Z,3.30
2022-12-14T06:01:34.496Z,3.10
2022-12-14T06:02:36.368Z,3.10
2022-12-14T06:03:41.208Z,2.60
2022-12-14T06:04:45.259Z,3.10
2022-12-14T06:05:47.504Z,3.20
2022-12-14T06:06:50.400Z,3.20
2022-12-14T06:07:53.819Z,3.00
2022-12-14T06:08:55.675Z,3.10
2022-12-14T06:09:57.331Z,3.20
2022-12-14T06:11:08.533Z,3.00
2022-12-14T06:12:12.904Z,3.20
2022-12-14T06:13:14.892Z,3.30
2022-12-14T06:14:18.880Z,3.10
2022-12-14T06:15:20.581Z,3.10
2022-12-14T06:16:24.628Z,2.80
2022-12-14T06:17:26.382Z,3.00
2022-12-14T06:18:28.467Z,3.20
2022-12-14T06:19:30.840Z,2.70
2022-12-14T06:20:32.543Z,3.20
2022-12-14T06:21:37.016Z,3.20
2022-12-14T06:22:45.726Z,3.10
2022-12-14T06:23:49.839Z,3.10
2022-12-14T06:24:51.898Z,3.10
2022-12-14T06:25:55.495Z,3.10
2022-12-14T06:26:58.638Z,3.10
2022-12-14T06:28:00.828Z,3.10
2022-12-14T06:29:04.069Z,3.00
2022-12-14T06:30:06.554Z,2.80
2022-12-14T06:31:16.680Z,3.10
2022-12-14T06:32:18.518Z,3.20
2022-12-14T06:33:20.242Z,3.10
2022-12-14T06:34:28.475Z,3.00
2022-12-14T06:35:30.641Z,3.30
2022-12-14T06:36:37.643Z,2.90
2022-12-14T06:37:39.435Z,2.70
2022-12-14T06:38:41.185Z,3.20
2022-12-14T06:39:42.986Z,3.20
2022-12-14T06:40:45.388Z,3.30
2022-12-14T06:41:51.315Z,3.20
2022-12-14T06:42:53.052Z,3.30
2022-12-14T06:43:55.206Z,3.10
2022-12-14T06:44:57.106Z,3.20
2022-12-14T06:45:59.175Z,3.00
2022-12-14T06:47:01.047Z,2.90
2022-12-14T06:48:02.971Z,3.30
2022-12-14T06:49:06.849Z,3.10
2022-12-14T06:50:09.516Z,3.10
2022-12-14T06:51:11.751Z,3.30
2022-12-14T06:52:13.595Z,3.20
2022-12-14T06:53:16.605Z,3.10
2022-12-14T06:54:19.441Z,3.00
2022-12-14T06:55:25.047Z,3.00
2022-12-14T06:56:28.010Z,3.10
2022-12-14T06:57:31.609Z,3.00
2022-12-14T06:58:35.831Z,3.00
2022-12-14T06:59:38.196Z,3.20
2022-12-14T07:00:41.056Z,3.00
2022-12-14T07:01:42.923Z,3.10
2022-12-14T07:02:45.038Z,3.00
2022-12-14T07:03:53.435Z,2.90
2022-12-14T07:04:56.599Z,2.90
2022-12-14T07:06:00.858Z,2.90
2022-12-14T07:07:02.654Z,3.10
2022-12-14T07:08:05.289Z,2.90
2022-12-14T07:09:13.126Z,2.90
2022-12-14T07:10:15.344Z,3.00
2022-12-14T07:11:17.860Z,3.10
2022-12-14T07:12:20.983Z,3.10
2022-12-14T07:13:23.254Z,3.00
2022-12-14T07:14:25.462Z,2.60
2022-12-14T07:15:28.958Z,3.10
2022-12-14T07:16:31.089Z,2.80
2022-12-14T07:17:35.521Z,2.90
2022-12-14T07:18:38.043Z,3.00
2022-12-14T07:19:39.839Z,2.80
2022-12-14T07:20:43.181Z,3.00
2022-12-14T07:21:46.347Z,2.80
2022-12-14T07:22:49.251Z,2.90
2022-12-14T07:23:54.799Z,3.00
2022-12-14T07:24:56.677Z,3.00
2022-12-14T07:26:06.265Z,2.80
2022-12-14T07:27:08.268Z,3.00
2022-12-14T07:28:10.186Z,3.00
2022-12-14T07:29:12.365Z,2.90
2022-12-14T07:30:14.602Z,2.90
2022-12-14T07:31:23.372Z,2.90
2022-12-14T07:32:26.318Z,2.90
2022-12-14T07:33:29.494Z,3.00
2022-12-14T07:34:32.507Z,3.00
2022-12-14T07:35:34.572Z,2.90
2022-12-14T07:36:37.286Z,3.00
2022-12-14T07:37:38.949Z,3.00
2022-12-14T07:38:41.720Z,3.10
2022-12-14T07:39:43.483Z,2.90
2022-12-14T07:40:47.745Z,3.00
2022-12-14T07:41:50.674Z,3.30
2022-12-14T07:42:52.953Z,3.00
2022-12-14T07:43:56.246Z,3.10
2022-12-14T07:45:02.975Z,3.00
2022-12-14T07:46:07.321Z,3.10
2022-12-14T07:47:12.468Z,3.10
2022-12-14T07:48:17.973Z,3.10
2022-12-14T07:49:19.969Z,3.00
2022-12-14T07:50:21.780Z,3.30
2022-12-14T07:51:26.520Z,3.10
2022-12-14T07:52:32.796Z,3.10
2022-12-14T07:53:38.649Z,3.10
2022-12-14T07:54:42.961Z,3.20
2022-12-14T07:55:44.849Z,3.20
2022-12-14T07:56:48.662Z,3.30
2022-12-14T07:57:52.018Z,3.20
2022-12-14T07:58:55.820Z,3.10
2022-12-14T07:59:59.017Z,3.10
2022-12-14T08:01:11.781Z,3.10
2022-12-14T08:02:18.258Z,3.30
2022-12-14T08:03:20.431Z,3.10
2022-12-14T08:04:22.804Z,3.20
2022-12-14T08:05:29.093Z,3.10
2022-12-14T08:06:32.813Z,3.00
2022-12-14T08:07:37.421Z,3.00
2022-12-14T08:08:41.389Z,3.10
2022-12-14T08:09:43.301Z,3.10
2022-12-14T08:10:48.964Z,3.10
2022-12-14T08:11:50.967Z,3.00
2022-12-14T08:12:54.854Z,3.00
2022-12-14T08:14:04.909Z,3.20
2022-12-14T08:15:07.793Z,3.10
2022-12-14T08:16:12.758Z,3.20
2022-12-14T08:17:14.497Z,3.00
2022-12-14T08:18:16.793Z,3.10
2022-12-14T08:19:19.871Z,3.20
2022-12-14T08:20:21.639Z,3.20
2022-12-14T08:21:24.540Z,3.20
2022-12-14T08:22:26.299Z,3.40
2022-12-14T08:23:29.785Z,3.50
2022-12-14T08:24:31.826Z,3.20
2022-12-14T08:25:35.117Z,3.20
2022-12-14T08:26:37.245Z,3.30
2022-12-14T08:27:39.219Z,3.50
2022-12-14T08:28:43.742Z,3.30
2022-12-14T08:29:45.553Z,3.30
2022-12-14T08:30:47.495Z,3.30
2022-12-14T08:31:49.438Z,3.30
2022-12-14T08:32:51.220Z,3.00
2022-12-14T08:33:53.162Z,3.40
2022-12-14T08:34:58.036Z,3.40
2022-12-14T08:36:06.375Z,3.20
2022-12-14T08:37:08.207Z,3.40
2022-12-14T08:38:10.537Z,3.40
2022-12-14T08:39:17.271Z,3.10
2022-12-14T08:40:19.469Z,3.50
2022-12-14T08:41:21.633Z,3.50
2022-12-14T08:42:24.017Z,3.50
2022-12-14T08:43:25.975Z,3.50
2022-12-14T08:44:27.672Z,3.50
2022-12-14T08:45:31.040Z,3.50
2022-12-14T08:46:35.643Z,3.50
2022-12-14T08:47:37.431Z,3.50
2022-12-14T08:48:39.458Z,3.50
2022-12-14T08:49:41.601Z,3.50
2022-12-14T08:50:43.286Z,3.10
2022-12-14T08:51:45.344Z,3.40
2022-12-14T08:52:48.645Z,3.10
2022-12-14T08:53:52.404Z,3.40
2022-12-14T08:54:55.207Z,3.40
2022-12-14T08:55:59.954Z,3.40
2022-12-14T08:57:01.992Z,3.20
2022-12-14T08:58:05.847Z,3.40
2022-12-14T08:59:07.762Z,3.50
2022-12-14T09:00:10.453Z,3.50
2022-12-14T09:01:21.235Z,3.50
2022-12-14T09:02:23.247Z,3.10
2022-12-14T09:03:25.411Z,3.50
2022-12-14T09:04:27.164Z,3.60
2022-12-14T09:05:33.048Z,3.10
2022-12-14T09:06:37.449Z,3.50
2022-12-14T09:07:39.519Z,3.70
2022-12-14T09:08:41.748Z,3.50
2022-12-14T09:09:43.516Z,3.50
2022-12-14T09:10:50.789Z,3.50
2022-12-14T09:11:53.899Z,3.50
2022-12-14T09:12:55.695Z,3.50
2022-12-14T09:14:01.419Z,3.30
2022-12-14T09:15:05.414Z,3.20
2022-12-14T09:16:21.729Z,3.60
2022-12-14T09:17:23.660Z,3.60
2022-12-14T09:18:27.999Z,3.60
2022-12-14T09:19:30.512Z,3.60
2022-12-14T09:20:34.120Z,3.60
2022-12-14T09:21:36.347Z,3.60
2022-12-14T09:22:40.300Z,3.70
2022-12-14T09:23:45.118Z,3.70
2022-12-14T09:24:48.262Z,3.30
2022-12-14T09:26:10.834Z,3.70
2022-12-14T09:27:14.088Z,3.70
2022-12-14T09:28:15.750Z,3.70
2022-12-14T09:29:18.700Z,3.70
2022-12-14T09:30:26.375Z,3.30
2022-12-14T09:31:28.880Z,3.70
2022-12-14T09:32:30.942Z,3.60
2022-12-14T09:33:34.465Z,3.70
2022-12-14T09:34:36.662Z,3.70
2022-12-14T09:35:38.412Z,3.70
2022-12-14T09:36:40.666Z,3.70
2022-12-14T09:37:42.492Z,3.60
2022-12-14T09:38:51.266Z,3.60
2022-12-14T09:39:54.935Z,3.60
2022-12-14T09:41:00.762Z,3.60
2022-12-14T09:42:12.229Z,3.60
2022-12-14T09:43:37.194Z,3.30
2022-12-14T09:45:11.109Z,3.60
2022-12-14T09:46:33.756Z,3.30
2022-12-14T09:47:56.735Z,3.60
2022-12-14T09:49:04.250Z,3.60
2022-12-14T09:50:14.271Z,3.50
2022-12-14T09:51:19.126Z,3.50
2022-12-14T09:52:30.657Z,3.40
2022-12-14T09:53:34.592Z,3.40
2022-12-14T09:54:39.041Z,3.40
2022-12-14T09:55:50.533Z,3.40
2022-12-14T09:56:54.897Z,3.50
2022-12-14T09:58:03.572Z,3.40
2022-12-14T09:59:05.605Z,3.40
2022-12-14T10:00:19.779Z,3.40
2022-12-14T10:01:24.767Z,3.50
2022-12-14T10:02:45.189Z,3.40
2022-12-14T10:04:15.939Z,3.40
2022-12-14T10:05:37.869Z,3.50
2022-12-14T10:07:06.452Z,3.30
2022-12-14T10:08:27.891Z,3.50
2022-12-14T10:09:55.025Z,3.10
2022-12-14T10:11:04.629Z,3.40
2022-12-14T10:12:21.154Z,3.50
2022-12-14T10:13:32.225Z,3.30
2022-12-14T10:14:42.678Z,3.40
2022-12-14T10:16:04.383Z,3.20
2022-12-14T10:17:17.779Z,3.50
2022-12-14T10:18:58.470Z,3.50
2022-12-14T10:20:05.892Z,3.50
2022-12-14T10:21:23.320Z,3.40
2022-12-14T10:22:52.872Z,3.40
2022-12-14T10:23:57.785Z,3.40
2022-12-14T10:25:19.992Z,3.00
2022-12-14T10:26:27.592Z,3.50
2022-12-14T10:28:01.013Z,3.40
2022-12-14T10:29:05.232Z,3.10
2022-12-14T10:30:15.804Z,3.40
2022-12-14T10:31:29.942Z,3.30
2022-12-14T10:32:39.986Z,3.40
2022-12-14T10:33:49.976Z,3.50
2022-12-14T10:34:54.176Z,3.50
2022-12-14T10:36:26.896Z,3.50
2022-12-14T10:37:40.823Z,3.50
2022-12-14T10:38:59.734Z,3.70
2022-12-14T10:40:17.560Z,3.50
2022-12-14T10:41:41.987Z,3.60
2022-12-14T10:43:09.158Z,3.80
2022-12-14T10:44:56.098Z,3.60
2022-12-14T10:46:14.535Z,3.60
2022-12-14T10:47:33.963Z,3.80
2022-12-14T10:48:56.997Z,3.60
2022-12-14T10:50:26.909Z,3.60
2022-12-14T10:51:42.055Z,3.60
2022-12-14T10:52:47.728Z,3.60
2022-12-14T10:53:59.910Z,3.60
2022-12-14T10:55:29.175Z,3.70
2022-12-14T10:56:43.117Z,3.60
2022-12-14T10:57:45.031Z,3.60
2022-12-14T10:59:26.673Z,3.60
2022-12-14T11:00:28.442Z,3.60
2022-12-14T11:01:30.538Z,3.30
2022-12-14T11:02:36.847Z,3.50
2022-12-14T11:03:39.560Z,3.50
2022-12-14T11:04:55.547Z,3.50
2022-12-14T11:05:59.609Z,3.10
2022-12-14T11:07:07.048Z,3.60
2022-12-14T11:08:09.865Z,3.50
2022-12-14T11:09:27.868Z,3.00
2022-12-14T11:10:32.586Z,3.40
2022-12-14T11:11:34.681Z,3.40
2022-12-14T11:12:38.038Z,3.30
2022-12-14T11:13:46.794Z,3.50
2022-12-14T11:14:58.582Z,3.30
2022-12-14T11:16:21.071Z,3.40
2022-12-14T11:17:33.464Z,3.50
2022-12-14T11:18:35.800Z,3.40
2022-12-14T11:19:39.186Z,3.40
2022-12-14T11:21:02.096Z,3.40
2022-12-14T11:22:21.946Z,3.50
2022-12-14T11:23:39.286Z,3.50
2022-12-14T11:24:46.908Z,3.50
2022-12-14T11:25:58.205Z,3.50
2022-12-14T11:27:05.742Z,3.50
2022-12-14T11:28:37.756Z,3.10
2022-12-14T11:29:44.287Z,3.40
2022-12-14T11:31:26.594Z,3.50
2022-12-14T11:32:28.354Z,3.20
2022-12-14T11:33:38.660Z,3.50
2022-12-14T11:34:44.300Z,3.10
2022-12-14T11:35:53.265Z,3.60
2022-12-14T11:36:59.492Z,3.20
2022-12-14T11:38:02.187Z,3.80
2022-12-14T11:39:12.100Z,3.60
2022-12-14T11:40:45.911Z,3.70
2022-12-14T11:42:01.823Z,3.70
2022-12-14T11:43:11.654Z,3.70
2022-12-14T11:44:19.092Z,3.80
2022-12-14T11:45:26.710Z,3.80
2022-12-14T11:46:51.180Z,3.80
2022-12-14T11:48:14.526Z,3.80
2022-12-14T11:49:42.184Z,3.80
2022-12-14T11:50:45.776Z,3.90
2022-12-14T11:51:58.850Z,3.80
2022-12-14T11:53:11.506Z,3.90
2022-12-14T11:54:15.928Z,3.90
2022-12-14T11:55:26.786Z,3.90
2022-12-14T11:56:30.456Z,3.90
2022-12-14T11:57:51.702Z,4.00
2022-12-14T11:58:54.685Z,4.00
2022-12-14T12:00:21.679Z,4.00
2022-12-14T12:01:28.983Z,4.10
2022-12-14T12:02:35.367Z,4.10
2022-12-14T12:03:42.575Z,4.20
2022-12-14T12:04:49.218Z,4.20
2022-12-14T12:05:56.712Z,4.20
2022-12-14T12:07:04.261Z,4.20
2022-12-14T12:08:31.308Z,4.20
2022-12-14T12:09:44.262Z,4.20
2022-12-14T12:10:51.039Z,4.30
2022-12-14T12:11:53.477Z,4.30
2022-12-14T12:13:00.599Z,4.30
2022-12-14T12:14:39.111Z,4.30
2022-12-14T12:15:49.972Z,4.40
2022-12-14T12:16:53.253Z,4.40
2022-12-14T12:18:00.745Z,4.40
2022-12-14T12:19:11.807Z,4.40
2022-12-14T12:20:30.214Z,4.40
2022-12-14T12:21:36.280Z,4.40
2022-12-14T12:22:46.132Z,4.40
2022-12-14T12:23:57.589Z,4.40
2022-12-14T12:26:37.954Z,4.40
2022-12-14T12:27:40.465Z,4.40
2022-12-14T12:28:50.879Z,4.40
2022-12-14T12:30:16.059Z,4.40
2022-12-14T12:31:24.019Z,4.40
2022-12-14T12:32:33.088Z,4.40
2022-12-14T12:33:47.616Z,4.40
2022-12-14T12:35:12.057Z,4.40
2022-12-14T12:36:24.054Z,4.40
2022-12-14T12:37:51.713Z,4.30
2022-12-14T12:39:12.503Z,4.40
2022-12-14T12:40:47.159Z,4.40
2022-12-14T12:42:19.172Z,4.40
2022-12-14T12:43:26.047Z,4.30
2022-12-14T12:44:49.554Z,4.30
2022-12-14T12:46:05.426Z,4.20
2022-12-14T12:47:38.480Z,4.20
2022-12-14T12:48:46.852Z,4.20
2022-12-14T12:49:48.857Z,4.20
2022-12-14T12:50:55.440Z,4.20
2022-12-14T12:52:01.651Z,4.20
2022-12-14T12:53:12.218Z,4.20
2022-12-14T12:54:35.160Z,4.20
2022-12-14T12:55:42.374Z,4.20
2022-12-14T12:56:48.481Z,4.20
2022-12-14T12:57:53.270Z,4.20
2022-12-14T12:58:56.754Z,4.20
2022-12-14T13:00:04.165Z,4.20
2022-12-14T13:01:35.943Z,4.20
2022-12-14T13:02:50.846Z,4.20
2022-12-14T13:03:57.565Z,4.20
2022-12-14T13:05:29.142Z,4.20
2022-12-14T13:06:41.553Z,4.20
2022-12-14T13:07:47.120Z,4.20
2022-12-14T13:08:57.719Z,4.20
2022-12-14T13:10:23.108Z,4.10
2022-12-14T13:11:35.470Z,4.10
2022-12-14T13:12:44.187Z,4.20
2022-12-14T13:13:58.615Z,4.20
2022-12-14T13:15:03.866Z,4.20
2022-12-14T13:16:24.640Z,4.20
2022-12-14T13:17:41.939Z,4.20
2022-12-14T13:19:01.976Z,4.20
2022-12-14T13:20:27.624Z,4.20
2022-12-14T13:21:35.004Z,4.20
2022-12-14T13:22:37.442Z,4.30
2022-12-14T13:23:45.442Z,4.20
2022-12-14T13:24:57.027Z,4.20
2022-12-14T13:26:56.655Z,4.20
2022-12-14T13:28:04.383Z,4.20
2022-12-14T13:29:17.800Z,4.20
2022-12-14T13:30:40.861Z,4.20
2022-12-14T13:31:50.696Z,4.20
2022-12-14T13:33:02.964Z,4.20
2022-12-14T13:34:20.224Z,4.20
2022-12-14T13:35:39.988Z,4.20
2022-12-14T13:37:21.185Z,4.20
2022-12-14T13:38:54.653Z,4.20
2022-12-14T13:40:09.986Z,4.20
2022-12-14T13:41:26.983Z,4.20
2022-12-14T13:42:52.027Z,4.20
2022-12-14T13:44:04.661Z,4.20
2022-12-14T13:45:22.379Z,4.20
2022-12-14T13:46:28.195Z,4.20
2022-12-14T13:47:42.698Z,4.10
2022-12-14T13:48:52.495Z,4.10
2022-12-14T13:50:34.287Z,4.10
2022-12-14T13:51:29.163Z,4.10
2022-12-14T13:52:33.954Z,4.10
2022-12-14T13:53:48.489Z,4.10
2022-12-14T13:54:53.339Z,4.10
2022-12-14T13:55:57.969Z,4.00
2022-12-14T13:57:21.255Z,4.00
2022-12-14T13:58:44.968Z,4.00
2022-12-14T13:59:50.496Z,4.00
2022-12-14T14:00:58.000Z,4.10
2022-12-14T14:02:01.967Z,4.10
2022-12-14T14:03:05.173Z,4.10
2022-12-14T14:04:15.818Z,4.00
2022-12-14T14:05:20.510Z,4.00
2022-12-14T14:06:41.160Z,4.00
2022-12-14T14:08:03.671Z,4.00
2022-12-14T14:09:24.676Z,4.00
2022-12-14T14:10:38.466Z,3.90
2022-12-14T14:11:44.045Z,3.90
2022-12-14T14:12:45.894Z,3.80
2022-12-14T14:13:49.708Z,3.80
2022-12-14T14:15:13.235Z,3.80
2022-12-14T14:16:30.935Z,3.80
2022-12-14T14:17:45.329Z,3.80
2022-12-14T14:19:00.852Z,3.40
2022-12-14T14:20:26.927Z,3.70
2022-12-14T14:21:52.809Z,3.80
2022-12-14T14:23:16.155Z,3.70
2022-12-14T14:24:17.797Z,3.70
2022-12-14T14:25:48.835Z,3.70
2022-12-14T14:27:18.882Z,3.90
2022-12-14T14:28:30.457Z,3.70
2022-12-14T14:29:33.136Z,3.70
2022-12-14T14:30:42.815Z,3.70
2022-12-14T14:31:54.855Z,3.70
2022-12-14T14:33:19.898Z,3.30
2022-12-14T14:34:23.109Z,3.70
2022-12-14T14:35:35.818Z,3.70
2022-12-14T14:36:44.010Z,3.70
2022-12-14T14:38:00.199Z,3.70
2022-12-14T14:39:24.533Z,3.70
2022-12-14T14:41:14.045Z,3.40
2022-12-14T14:42:05.117Z,3.50
2022-12-14T14:43:22.752Z,3.70
2022-12-14T14:44:38.588Z,3.60
2022-12-14T14:45:49.006Z,3.40
2022-12-14T14:46:51.094Z,3.60
2022-12-14T14:48:02.445Z,3.80
2022-12-14T14:49:08.568Z,3.60
2022-12-14T14:50:16.252Z,3.80
2022-12-14T14:51:22.508Z,3.60
2022-12-14T14:52:45.763Z,3.60
2022-12-14T14:53:50.280Z,3.60
2022-12-14T14:56:35.215Z,3.70
2022-12-14T14:58:07.032Z,3.40
2022-12-14T14:59:17.392Z,3.70
2022-12-14T15:00:19.160Z,3.70
2022-12-14T15:01:27.516Z,3.70
2022-12-14T15:02:33.141Z,3.90
2022-12-14T15:03:55.794Z,3.70
2022-12-14T15:05:11.081Z,3.70
2022-12-14T15:06:33.407Z,3.60
2022-12-14T15:07:35.530Z,3.70
2022-12-14T15:08:43.227Z,3.70
2022-12-14T15:09:50.739Z,3.30
2022-12-14T15:10:53.998Z,3.70
2022-12-14T15:12:18.166Z,3.70
2022-12-14T15:13:28.432Z,3.70
2022-12-14T15:14:46.624Z,3.70
2022-12-14T15:15:53.079Z,3.40
2022-12-14T15:16:55.015Z,3.70
2022-12-14T15:18:23.645Z,3.70
2022-12-14T15:19:27.842Z,3.70
2022-12-14T15:20:29.884Z,3.70
2022-12-14T15:21:32.341Z,3.70
2022-12-14T15:22:42.606Z,3.70
2022-12-14T15:23:49.521Z,3.50
2022-12-14T15:24:55.773Z,3.40
2022-12-14T15:26:00.325Z,3.70
2022-12-14T15:27:14.457Z,3.70
2022-12-14T15:28:22.785Z,3.70
2022-12-14T15:29:28.000Z,3.80
2022-12-14T15:30:30.017Z,3.70
2022-12-14T15:31:35.246Z,3.70